Hovedside
METAR-TAF:

METAR-TAF

Lufthavner :

Kristiansand, Norge

Kristiansand lufthavn

breddegrad: 58-12N, lengdegrad: 008-05E, høyde over havet: 1 m

Gjeldene værobservasjon

Denne rapporten ble laget for 30 minutter siden, klokken 18:50 UTC
Vind 3 kt fra Sør
Temperatur 20°C
Luftfuktighet 60%
Trykk 1017 hPa
Sikt 10 km eller mer
ingen skyer under 1500 m og ingen bygeskyer

METAR: ENCN 271850Z 18003KT CAVOK 20/12 Q1017

Tid: 21:20 (19:20 UTC)

Varsel

Denne rapporten ble laget for 2 timer og 20 minutter siden, klokken 17:00 UTC
Varsel gyldig fra 27. klokken 18 UTC til 27. klokken 21 UTC
Vind 5 kt fra skiftende retning
Sikt 10 km eller mer
ingen skyer under 1500 m og ingen bygeskyer

TAF: ENCN 271700Z 2718/2721 VRB05KT CAVOK

Værobservasjoner og værvarsel for over 4000 flyplasser (METAR- og TAF-rapporter).

Tilgjengelige stasjoner er representert av de røde og gule prikkene på kartet.

Hold musepekeren over prikken for å se navnet på stasjonen.

Klikk så for å se værobservasjoner og -varsler.

For å forandre kartet kan du klikke på den grønne knappen med svart kryss for å zoome inn, på den grønne knappen med strek for å zoome ut, eller på de grønne pilene for å se tilstøtende kart.


METAR-TAF: